sensor_id;sensor_type;location;lat;lon;timestamp;pressure;altitude;pressure_sealevel;temperature;humidity
64404;BME280;50726;54.912;-8.392;2022-07-04T00:01:22;101135.06;;;20.61;100.00
64404;BME280;50726;54.912;-8.392;2022-07-04T00:03:47;101109.22;;;20.96;100.00
64404;BME280;50726;54.912;-8.392;2022-07-04T00:06:13;101112.34;;;20.88;100.00
64404;BME280;50726;54.912;-8.392;2022-07-04T00:08:39;101114.13;;;21.18;100.00
64404;BME280;50726;54.912;-8.392;2022-07-04T00:11:04;101115.16;;;20.85;100.00
64404;BME280;50726;54.912;-8.392;2022-07-04T00:13:30;101109.34;;;21.09;100.00
64404;BME280;50726;54.912;-8.392;2022-07-04T00:15:56;101103.66;;;21.15;100.00
64404;BME280;50726;54.912;-8.392;2022-07-04T00:18:21;101100.91;;;21.16;100.00
64404;BME280;50726;54.912;-8.392;2022-07-04T00:20:47;101120.94;;;21.08;100.00
64404;BME280;50726;54.912;-8.392;2022-07-04T00:23:13;101090.19;;;21.18;100.00
64404;BME280;50726;54.912;-8.392;2022-07-04T00:25:38;101083.66;;;21.53;100.00
64404;BME280;50726;54.912;-8.392;2022-07-04T00:28:04;101086.22;;;20.95;100.00
64404;BME280;50726;54.912;-8.392;2022-07-04T00:30:30;101086.22;;;21.40;100.00
64404;BME280;50726;54.912;-8.392;2022-07-04T00:32:55;101085.19;;;21.42;100.00
64404;BME280;50726;54.912;-8.392;2022-07-04T00:35:21;101075.19;;;20.86;100.00
64404;BME280;50726;54.912;-8.392;2022-07-04T00:37:47;101075.69;;;21.67;100.00
64404;BME280;50726;54.912;-8.392;2022-07-04T00:40:12;101078.78;;;21.45;100.00
64404;BME280;50726;54.912;-8.392;2022-07-04T00:42:38;101084.78;;;21.19;100.00
64404;BME280;50726;54.912;-8.392;2022-07-04T00:45:04;101084.34;;;21.71;100.00
64404;BME280;50726;54.912;-8.392;2022-07-04T00:47:30;101072.16;;;21.38;100.00
64404;BME280;50726;54.912;-8.392;2022-07-04T00:49:57;101087.47;;;21.92;100.00
64404;BME280;50726;54.912;-8.392;2022-07-04T00:52:23;101086.31;;;21.67;100.00
64404;BME280;50726;54.912;-8.392;2022-07-04T00:54:48;101078.66;;;21.03;100.00
64404;BME280;50726;54.912;-8.392;2022-07-04T00:57:14;101100.84;;;21.62;100.00
64404;BME280;50726;54.912;-8.392;2022-07-04T00:59:40;101090.50;;;21.57;100.00
64404;BME280;50726;54.912;-8.392;2022-07-04T01:02:06;101101.94;;;21.73;100.00
64404;BME280;50726;54.912;-8.392;2022-07-04T01:04:34;101086.88;;;21.58;100.00
64404;BME280;50726;54.912;-8.392;2022-07-04T01:06:59;101094.69;;;21.61;100.00
64404;BME280;50726;54.912;-8.392;2022-07-04T01:09:25;101098.13;;;21.92;100.00
64404;BME280;50726;54.912;-8.392;2022-07-04T01:11:51;101102.28;;;21.53;100.00
64404;BME280;50726;54.912;-8.392;2022-07-04T01:14:17;101102.69;;;21.90;100.00
64404;BME280;50726;54.912;-8.392;2022-07-04T01:16:43;101084.63;;;21.95;100.00
64404;BME280;50726;54.912;-8.392;2022-07-04T01:19:09;101097.34;;;22.05;100.00
64404;BME280;50726;54.912;-8.392;2022-07-04T01:21:34;101096.28;;;22.07;100.00
64404;BME280;50726;54.912;-8.392;2022-07-04T01:24:00;101098.16;;;21.78;100.00
64404;BME280;50726;54.912;-8.392;2022-07-04T01:26:27;101094.69;;;21.61;100.00
64404;BME280;50726;54.912;-8.392;2022-07-04T01:28:53;101106.47;;;22.00;100.00
64404;BME280;50726;54.912;-8.392;2022-07-04T01:31:19;101111.84;;;21.12;100.00
64404;BME280;50726;54.912;-8.392;2022-07-04T01:33:44;101101.72;;;20.72;100.00
64404;BME280;50726;54.912;-8.392;2022-07-04T01:36:10;101145.63;;;20.63;100.00
64404;BME280;50726;54.912;-8.392;2022-07-04T01:38:35;101110.44;;;20.74;100.00
64404;BME280;50726;54.912;-8.392;2022-07-04T01:41:01;101117.38;;;21.23;100.00
64404;BME280;50726;54.912;-8.392;2022-07-04T01:43:26;101097.50;;;21.29;100.00
64404;BME280;50726;54.912;-8.392;2022-07-04T01:45:52;101109.34;;;20.78;100.00
64404;BME280;50726;54.912;-8.392;2022-07-04T01:48:18;101106.78;;;21.07;100.00
64404;BME280;50726;54.912;-8.392;2022-07-04T01:50:43;101102.44;;;21.21;100.00
64404;BME280;50726;54.912;-8.392;2022-07-04T01:53:10;101121.81;;;21.08;100.00
64404;BME280;50726;54.912;-8.392;2022-07-04T01:55:36;101092.09;;;21.30;100.00
64404;BME280;50726;54.912;-8.392;2022-07-04T02:01:23;101109.91;;;20.99;100.00
64404;BME280;50726;54.912;-8.392;2022-07-04T02:03:56;101110.00;;;20.98;100.00
64404;BME280;50726;54.912;-8.392;2022-07-04T02:06:22;101102.56;;;21.33;100.00
64404;BME280;50726;54.912;-8.392;2022-07-04T02:08:47;101116.44;;;20.93;100.00
64404;BME280;50726;54.912;-8.392;2022-07-04T02:11:32;101104.66;;;20.98;100.00
64404;BME280;50726;54.912;-8.392;2022-07-04T02:14:17;101099.41;;;21.41;100.00
64404;BME280;50726;54.912;-8.392;2022-07-04T02:16:43;101101.91;;;21.44;100.00
64404;BME280;50726;54.912;-8.392;2022-07-04T02:19:09;101100.28;;;21.42;100.00
64404;BME280;50726;54.912;-8.392;2022-07-04T02:21:35;101095.13;;;21.39;100.00
64404;BME280;50726;54.912;-8.392;2022-07-04T02:24:01;101101.88;;;21.30;100.00
64404;BME280;50726;54.912;-8.392;2022-07-04T02:26:27;101101.22;;;21.26;100.00
64404;BME280;50726;54.912;-8.392;2022-07-04T02:28:52;101095.75;;;20.99;100.00
64404;BME280;50726;54.912;-8.392;2022-07-04T02:31:18;101104.69;;;21.57;100.00
64404;BME280;50726;54.912;-8.392;2022-07-04T02:33:44;101109.66;;;21.18;100.00
64404;BME280;50726;54.912;-8.392;2022-07-04T02:36:09;101105.13;;;20.74;100.00
64404;BME280;50726;54.912;-8.392;2022-07-04T02:38:35;101123.41;;;20.64;100.00
64404;BME280;50726;54.912;-8.392;2022-07-04T02:41:01;101110.34;;;20.91;100.00
64404;BME280;50726;54.912;-8.392;2022-07-04T02:43:26;101107.31;;;20.98;100.00
64404;BME280;50726;54.912;-8.392;2022-07-04T02:45:52;101119.88;;;21.55;100.00
64404;BME280;50726;54.912;-8.392;2022-07-04T02:48:17;101110.97;;;21.71;100.00
64404;BME280;50726;54.912;-8.392;2022-07-04T02:50:43;101122.84;;;21.80;100.00
64404;BME280;50726;54.912;-8.392;2022-07-04T02:53:11;101122.91;;;21.49;100.00
64404;BME280;50726;54.912;-8.392;2022-07-04T02:55:37;101118.81;;;21.43;100.00
64404;BME280;50726;54.912;-8.392;2022-07-04T02:58:02;101133.47;;;21.65;98.70
64404;BME280;50726;54.912;-8.392;2022-07-04T03:00:28;101127.78;;;21.86;95.35
64404;BME280;50726;54.912;-8.392;2022-07-04T03:02:54;101126.09;;;21.25;98.19
64404;BME280;50726;54.912;-8.392;2022-07-04T03:05:20;101132.75;;;21.18;99.10
64404;BME280;50726;54.912;-8.392;2022-07-04T03:07:46;101123.44;;;20.95;99.23
64404;BME280;50726;54.912;-8.392;2022-07-04T03:10:11;101121.28;;;21.01;99.02
64404;BME280;50726;54.912;-8.392;2022-07-04T03:12:37;101125.72;;;21.31;100.00
64404;BME280;50726;54.912;-8.392;2022-07-04T03:15:03;101120.56;;;20.83;100.00
64404;BME280;50726;54.912;-8.392;2022-07-04T03:17:30;101133.50;;;21.20;99.91
64404;BME280;50726;54.912;-8.392;2022-07-04T03:19:59;101131.22;;;21.73;99.16
64404;BME280;50726;54.912;-8.392;2022-07-04T03:22:26;101122.91;;;21.49;100.00
64404;BME280;50726;54.912;-8.392;2022-07-04T03:24:51;101130.72;;;21.52;100.00
64404;BME280;50726;54.912;-8.392;2022-07-04T03:27:17;101123.53;;;21.24;100.00
64404;BME280;50726;54.912;-8.392;2022-07-04T03:29:42;101139.38;;;21.56;100.00
64404;BME280;50726;54.912;-8.392;2022-07-04T03:32:09;101147.38;;;21.99;100.00
64404;BME280;50726;54.912;-8.392;2022-07-04T03:34:34;101145.81;;;21.37;100.00
64404;BME280;50726;54.912;-8.392;2022-07-04T03:37:01;101143.59;;;21.29;100.00
64404;BME280;50726;54.912;-8.392;2022-07-04T03:39:26;101159.47;;;20.84;100.00
64404;BME280;50726;54.912;-8.392;2022-07-04T03:41:52;101146.94;;;21.02;100.00
64404;BME280;50726;54.912;-8.392;2022-07-04T03:44:17;101164.13;;;20.48;100.00
64404;BME280;50726;54.912;-8.392;2022-07-04T03:46:43;101161.66;;;20.61;100.00
64404;BME280;50726;54.912;-8.392;2022-07-04T03:49:09;101160.69;;;20.62;100.00
64404;BME280;50726;54.912;-8.392;2022-07-04T03:51:34;101156.78;;;20.37;100.00
64404;BME280;50726;54.912;-8.392;2022-07-04T03:54:00;101154.53;;;20.46;100.00
64404;BME280;50726;54.912;-8.392;2022-07-04T03:56:26;101164.63;;;20.71;100.00
64404;BME280;50726;54.912;-8.392;2022-07-04T03:58:51;101160.59;;;20.96;100.00
64404;BME280;50726;54.912;-8.392;2022-07-04T04:01:18;101165.31;;;21.07;100.00
64404;BME280;50726;54.912;-8.392;2022-07-04T04:03:45;101160.88;;;20.91;100.00
64404;BME280;50726;54.912;-8.392;2022-07-04T04:06:31;101165.78;;;21.14;100.00
64404;BME280;50726;54.912;-8.392;2022-07-04T04:08:57;101157.34;;;20.91;100.00
64404;BME280;50726;54.912;-8.392;2022-07-04T04:11:22;101168.41;;;20.51;100.00
64404;BME280;50726;54.912;-8.392;2022-07-04T04:13:48;101155.72;;;20.72;100.00
64404;BME280;50726;54.912;-8.392;2022-07-04T04:16:14;101160.34;;;20.85;100.00
64404;BME280;50726;54.912;-8.392;2022-07-04T04:18:40;101155.88;;;21.46;100.00
64404;BME280;50726;54.912;-8.392;2022-07-04T04:21:06;101151.47;;;21.76;100.00
64404;BME280;50726;54.912;-8.392;2022-07-04T04:23:32;101159.38;;;21.78;100.00
64404;BME280;50726;54.912;-8.392;2022-07-04T04:25:58;101155.41;;;21.40;100.00
64404;BME280;50726;54.912;-8.392;2022-07-04T04:28:23;101161.09;;;21.03;100.00
64404;BME280;50726;54.912;-8.392;2022-07-04T04:30:52;101162.94;;;20.86;100.00
64404;BME280;50726;54.912;-8.392;2022-07-04T04:33:18;101180.44;;;20.90;100.00
64404;BME280;50726;54.912;-8.392;2022-07-04T04:35:43;101167.28;;;20.87;100.00
64404;BME280;50726;54.912;-8.392;2022-07-04T04:38:09;101180.97;;;21.42;100.00
64404;BME280;50726;54.912;-8.392;2022-07-04T04:40:35;101191.22;;;20.55;100.00
64404;BME280;50726;54.912;-8.392;2022-07-04T04:43:00;101183.84;;;20.28;100.00
64404;BME280;50726;54.912;-8.392;2022-07-04T04:45:26;101192.94;;;20.24;100.00
64404;BME280;50726;54.912;-8.392;2022-07-04T04:47:52;101222.50;;;20.00;100.00
64404;BME280;50726;54.912;-8.392;2022-07-04T04:50:20;101201.31;;;20.32;100.00
64404;BME280;50726;54.912;-8.392;2022-07-04T04:52:46;101199.53;;;20.81;100.00
64404;BME280;50726;54.912;-8.392;2022-07-04T04:55:12;101194.34;;;19.80;100.00
64404;BME280;50726;54.912;-8.392;2022-07-04T04:57:37;101186.63;;;19.57;100.00
64404;BME280;50726;54.912;-8.392;2022-07-04T05:00:04;101200.66;;;19.77;100.00
64404;BME280;50726;54.912;-8.392;2022-07-04T05:02:30;101190.75;;;20.15;100.00
64404;BME280;50726;54.912;-8.392;2022-07-04T05:04:56;101204.72;;;20.18;100.00
64404;BME280;50726;54.912;-8.392;2022-07-04T05:07:21;101212.28;;;20.26;100.00
64404;BME280;50726;54.912;-8.392;2022-07-04T05:09:48;101201.47;;;20.29;100.00
64404;BME280;50726;54.912;-8.392;2022-07-04T05:12:14;101207.41;;;20.50;100.00
64404;BME280;50726;54.912;-8.392;2022-07-04T05:14:39;101211.34;;;20.59;100.00
64404;BME280;50726;54.912;-8.392;2022-07-04T05:17:05;101191.38;;;20.68;100.00
64404;BME280;50726;54.912;-8.392;2022-07-04T05:19:30;101201.78;;;20.73;100.00
64404;BME280;50726;54.912;-8.392;2022-07-04T05:21:56;101214.03;;;20.91;100.00
64404;BME280;50726;54.912;-8.392;2022-07-04T05:24:22;101213.19;;;20.91;100.00
64404;BME280;50726;54.912;-8.392;2022-07-04T05:26:48;101204.59;;;20.37;100.00
64404;BME280;50726;54.912;-8.392;2022-07-04T05:29:13;101218.47;;;20.43;100.00
64404;BME280;50726;54.912;-8.392;2022-07-04T05:31:39;101232.81;;;20.88;100.00
64404;BME280;50726;54.912;-8.392;2022-07-04T05:34:05;101239.69;;;20.92;100.00
64404;BME280;50726;54.912;-8.392;2022-07-04T05:36:31;101231.78;;;21.07;100.00
64404;BME280;50726;54.912;-8.392;2022-07-04T05:38:57;101243.84;;;20.64;100.00
64404;BME280;50726;54.912;-8.392;2022-07-04T05:41:23;101248.78;;;21.35;100.00
64404;BME280;50726;54.912;-8.392;2022-07-04T05:43:50;101248.31;;;20.64;100.00
64404;BME280;50726;54.912;-8.392;2022-07-04T05:46:16;101273.59;;;20.55;100.00
64404;BME280;50726;54.912;-8.392;2022-07-04T05:48:41;101246.00;;;21.06;100.00
64404;BME280;50726;54.912;-8.392;2022-07-04T05:51:07;101249.69;;;20.55;100.00
64404;BME280;50726;54.912;-8.392;2022-07-04T05:53:33;101256.91;;;20.69;100.00
64404;BME280;50726;54.912;-8.392;2022-07-04T05:55:58;101256.28;;;20.48;100.00
64404;BME280;50726;54.912;-8.392;2022-07-04T05:58:24;101260.00;;;20.77;100.00
64404;BME280;50726;54.912;-8.392;2022-07-04T06:00:50;101248.16;;;20.17;100.00
64404;BME280;50726;54.912;-8.392;2022-07-04T06:03:15;101255.56;;;20.28;100.00
64404;BME280;50726;54.912;-8.392;2022-07-04T06:05:41;101285.81;;;19.90;100.00
64404;BME280;50726;54.912;-8.392;2022-07-04T06:08:08;101270.16;;;20.53;100.00
64404;BME280;50726;54.912;-8.392;2022-07-04T06:10:34;101259.38;;;20.06;100.00
64404;BME280;50726;54.912;-8.392;2022-07-04T06:12:59;101258.56;;;19.86;100.00
64404;BME280;50726;54.912;-8.392;2022-07-04T06:15:25;101273.47;;;20.41;100.00
64404;BME280;50726;54.912;-8.392;2022-07-04T06:17:51;101260.91;;;20.10;100.00
64404;BME280;50726;54.912;-8.392;2022-07-04T06:20:17;101278.06;;;20.21;100.00
64404;BME280;50726;54.912;-8.392;2022-07-04T06:22:46;101277.75;;;20.27;100.00
64404;BME280;50726;54.912;-8.392;2022-07-04T06:25:17;101259.84;;;21.43;100.00
64404;BME280;50726;54.912;-8.392;2022-07-04T06:27:44;101274.66;;;20.19;100.00
64404;BME280;50726;54.912;-8.392;2022-07-04T06:30:11;101277.38;;;20.51;100.00
64404;BME280;50726;54.912;-8.392;2022-07-04T06:35:16;101268.97;;;20.75;100.00
64404;BME280;50726;54.912;-8.392;2022-07-04T06:38:00;101259.91;;;23.97;100.00
64404;BME280;50726;54.912;-8.392;2022-07-04T06:40:26;101269.13;;;21.36;100.00
64404;BME280;50726;54.912;-8.392;2022-07-04T06:42:52;101270.63;;;20.61;100.00
64404;BME280;50726;54.912;-8.392;2022-07-04T06:45:18;101267.88;;;21.27;100.00
64404;BME280;50726;54.912;-8.392;2022-07-04T06:47:45;101267.41;;;21.04;100.00
64404;BME280;50726;54.912;-8.392;2022-07-04T06:50:15;101293.38;;;20.49;100.00
64404;BME280;50726;54.912;-8.392;2022-07-04T06:52:41;101261.78;;;20.77;100.00
64404;BME280;50726;54.912;-8.392;2022-07-04T06:55:07;101273.41;;;20.92;100.00
64404;BME280;50726;54.912;-8.392;2022-07-04T06:57:33;101277.94;;;21.22;100.00
64404;BME280;50726;54.912;-8.392;2022-07-04T06:59:58;101278.38;;;20.98;100.00
64404;BME280;50726;54.912;-8.392;2022-07-04T07:02:24;101287.19;;;21.31;100.00
64404;BME280;50726;54.912;-8.392;2022-07-04T07:04:57;101285.16;;;20.88;100.00
64404;BME280;50726;54.912;-8.392;2022-07-04T07:07:25;101289.38;;;20.58;100.00
64404;BME280;50726;54.912;-8.392;2022-07-04T07:09:53;101273.66;;;20.87;100.00
64404;BME280;50726;54.912;-8.392;2022-07-04T07:12:20;101291.41;;;20.87;100.00
64404;BME280;50726;54.912;-8.392;2022-07-04T07:14:46;101297.53;;;20.55;100.00
64404;BME280;50726;54.912;-8.392;2022-07-04T07:17:11;101299.00;;;20.77;100.00
64404;BME280;50726;54.912;-8.392;2022-07-04T07:19:37;101293.00;;;21.68;100.00
64404;BME280;50726;54.912;-8.392;2022-07-04T07:22:03;101284.66;;;21.44;100.00
64404;BME280;50726;54.912;-8.392;2022-07-04T07:24:30;101303.91;;;21.80;100.00
64404;BME280;50726;54.912;-8.392;2022-07-04T07:26:56;101298.59;;;21.94;100.00
64404;BME280;50726;54.912;-8.392;2022-07-04T07:29:23;101311.91;;;21.80;100.00
64404;BME280;50726;54.912;-8.392;2022-07-04T07:31:49;101305.22;;;22.18;100.00
64404;BME280;50726;54.912;-8.392;2022-07-04T07:34:15;101306.53;;;22.25;100.00
64404;BME280;50726;54.912;-8.392;2022-07-04T07:36:41;101316.91;;;21.70;100.00
64404;BME280;50726;54.912;-8.392;2022-07-04T07:39:07;101325.84;;;21.53;100.00
64404;BME280;50726;54.912;-8.392;2022-07-04T07:41:32;101325.75;;;21.54;100.00
64404;BME280;50726;54.912;-8.392;2022-07-04T07:43:58;101326.59;;;21.08;100.00
64404;BME280;50726;54.912;-8.392;2022-07-04T07:46:23;101339.47;;;20.32;100.00
64404;BME280;50726;54.912;-8.392;2022-07-04T07:48:49;101331.06;;;20.58;100.00
64404;BME280;50726;54.912;-8.392;2022-07-04T07:51:15;101351.91;;;20.14;100.00
64404;BME280;50726;54.912;-8.392;2022-07-04T07:53:42;101335.09;;;20.81;100.00
64404;BME280;50726;54.912;-8.392;2022-07-04T07:56:08;101330.50;;;21.33;100.00
64404;BME280;50726;54.912;-8.392;2022-07-04T07:58:34;101335.09;;;21.62;100.00
64404;BME280;50726;54.912;-8.392;2022-07-04T08:01:00;101329.66;;;21.49;100.00
64404;BME280;50726;54.912;-8.392;2022-07-04T08:03:28;101322.75;;;20.80;100.00
64404;BME280;50726;54.912;-8.392;2022-07-04T08:06:13;101329.84;;;21.13;100.00
64404;BME280;50726;54.912;-8.392;2022-07-04T08:08:42;101339.13;;;21.85;100.00
64404;BME280;50726;54.912;-8.392;2022-07-04T08:11:08;101352.66;;;21.01;100.00
64404;BME280;50726;54.912;-8.392;2022-07-04T08:13:38;101340.09;;;21.52;100.00
64404;BME280;50726;54.912;-8.392;2022-07-04T08:16:05;101338.69;;;21.77;100.00
64404;BME280;50726;54.912;-8.392;2022-07-04T08:18:32;101330.41;;;22.12;100.00
64404;BME280;50726;54.912;-8.392;2022-07-04T08:20:58;101333.66;;;21.56;100.00
64404;BME280;50726;54.912;-8.392;2022-07-04T08:23:24;101346.31;;;21.20;100.00
64404;BME280;50726;54.912;-8.392;2022-07-04T08:25:50;101344.22;;;21.41;100.00
64404;BME280;50726;54.912;-8.392;2022-07-04T08:28:17;101358.75;;;21.19;100.00
64404;BME280;50726;54.912;-8.392;2022-07-04T08:30:42;101343.88;;;20.83;100.00
64404;BME280;50726;54.912;-8.392;2022-07-04T08:33:08;101355.56;;;21.13;100.00
64404;BME280;50726;54.912;-8.392;2022-07-04T08:35:33;101357.44;;;20.95;100.00
64404;BME280;50726;54.912;-8.392;2022-07-04T08:37:59;101378.84;;;20.75;100.00
64404;BME280;50726;54.912;-8.392;2022-07-04T08:40:30;101356.22;;;21.65;100.00
64404;BME280;50726;54.912;-8.392;2022-07-04T08:42:56;101361.38;;;21.52;100.00
64404;BME280;50726;54.912;-8.392;2022-07-04T08:45:33;101364.56;;;22.05;100.00
64404;BME280;50726;54.912;-8.392;2022-07-04T08:48:03;101364.44;;;21.92;100.00
64404;BME280;50726;54.912;-8.392;2022-07-04T08:50:31;101360.22;;;22.19;100.00
64404;BME280;50726;54.912;-8.392;2022-07-04T08:53:06;101354.13;;;22.17;100.00
64404;BME280;50726;54.912;-8.392;2022-07-04T08:55:32;101355.78;;;22.03;100.00
64404;BME280;50726;54.912;-8.392;2022-07-04T08:58:17;101356.53;;;22.50;100.00
64404;BME280;50726;54.912;-8.392;2022-07-04T09:00:53;101365.13;;;22.85;100.00
64404;BME280;50726;54.912;-8.392;2022-07-04T09:03:19;101368.69;;;22.40;100.00
64404;BME280;50726;54.912;-8.392;2022-07-04T09:05:46;101362.00;;;22.18;100.00
64404;BME280;50726;54.912;-8.392;2022-07-04T09:08:12;101366.94;;;22.10;100.00
64404;BME280;50726;54.912;-8.392;2022-07-04T09:10:38;101369.59;;;21.95;100.00
64404;BME280;50726;54.912;-8.392;2022-07-04T09:13:06;101360.28;;;22.03;100.00
64404;BME280;50726;54.912;-8.392;2022-07-04T09:15:33;101374.22;;;22.51;100.00
64404;BME280;50726;54.912;-8.392;2022-07-04T09:18:00;101381.31;;;22.67;100.00
64404;BME280;50726;54.912;-8.392;2022-07-04T09:20:27;101377.31;;;22.74;100.00
64404;BME280;50726;54.912;-8.392;2022-07-04T09:22:54;101366.44;;;22.92;100.00
64404;BME280;50726;54.912;-8.392;2022-07-04T09:25:21;101377.25;;;23.32;100.00
64404;BME280;50726;54.912;-8.392;2022-07-04T09:27:50;101372.75;;;22.62;100.00
64404;BME280;50726;54.912;-8.392;2022-07-04T09:30:18;101381.44;;;23.22;100.00
64404;BME280;50726;54.912;-8.392;2022-07-04T09:32:45;101382.06;;;22.69;98.64
64404;BME280;50726;54.912;-8.392;2022-07-04T09:35:13;101381.66;;;22.46;97.70
64404;BME280;50726;54.912;-8.392;2022-07-04T09:37:42;101386.81;;;22.93;98.77
64404;BME280;50726;54.912;-8.392;2022-07-04T09:40:30;101393.31;;;23.45;95.55
64404;BME280;50726;54.912;-8.392;2022-07-04T09:42:58;101389.47;;;23.07;97.62
64404;BME280;50726;54.912;-8.392;2022-07-04T09:45:24;101393.22;;;22.31;100.00
64404;BME280;50726;54.912;-8.392;2022-07-04T09:47:53;101393.50;;;22.71;100.00
64404;BME280;50726;54.912;-8.392;2022-07-04T09:50:23;101407.44;;;22.31;100.00
64404;BME280;50726;54.912;-8.392;2022-07-04T09:52:59;101396.84;;;22.15;100.00
64404;BME280;50726;54.912;-8.392;2022-07-04T09:55:31;101403.34;;;22.25;100.00
64404;BME280;50726;54.912;-8.392;2022-07-04T09:58:02;101413.59;;;21.86;100.00
64404;BME280;50726;54.912;-8.392;2022-07-04T10:00:37;101408.00;;;21.91;100.00
64404;BME280;50726;54.912;-8.392;2022-07-04T10:06:05;101397.88;;;21.66;100.00
64404;BME280;50726;54.912;-8.392;2022-07-04T10:08:31;101410.88;;;22.03;100.00
64404;BME280;50726;54.912;-8.392;2022-07-04T10:10:58;101402.47;;;22.25;100.00
64404;BME280;50726;54.912;-8.392;2022-07-04T10:13:25;101410.84;;;22.78;100.00
64404;BME280;50726;54.912;-8.392;2022-07-04T10:15:51;101418.91;;;22.17;100.00
64404;BME280;50726;54.912;-8.392;2022-07-04T10:18:22;101411.34;;;21.63;100.00
64404;BME280;50726;54.912;-8.392;2022-07-04T10:20:48;101420.44;;;21.26;100.00
64404;BME280;50726;54.912;-8.392;2022-07-04T10:23:16;101427.94;;;21.84;100.00
64404;BME280;50726;54.912;-8.392;2022-07-04T10:25:41;101426.63;;;21.91;100.00
64404;BME280;50726;54.912;-8.392;2022-07-04T10:28:08;101409.44;;;22.42;100.00
64404;BME280;50726;54.912;-8.392;2022-07-04T10:30:36;101399.19;;;23.09;100.00
64404;BME280;50726;54.912;-8.392;2022-07-04T10:33:10;101416.56;;;23.98;100.00
64404;BME280;50726;54.912;-8.392;2022-07-04T10:35:53;101406.13;;;23.40;100.00
64404;BME280;50726;54.912;-8.392;2022-07-04T10:38:21;101409.47;;;23.15;100.00
64404;BME280;50726;54.912;-8.392;2022-07-04T10:40:52;101420.53;;;22.94;100.00
64404;BME280;50726;54.912;-8.392;2022-07-04T10:48:31;101426.91;;;22.62;100.00
64404;BME280;50726;54.912;-8.392;2022-07-04T10:51:02;101445.19;;;22.54;100.00
64404;BME280;50726;54.912;-8.392;2022-07-04T10:53:29;101443.44;;;22.08;100.00
64404;BME280;50726;54.912;-8.392;2022-07-04T10:58:42;101443.78;;;22.63;100.00
64404;BME280;50726;54.912;-8.392;2022-07-04T11:01:12;101438.59;;;21.84;100.00
64404;BME280;50726;54.912;-8.392;2022-07-04T11:03:48;101436.06;;;22.73;100.00
64404;BME280;50726;54.912;-8.392;2022-07-04T11:09:17;101451.59;;;23.10;100.00
64404;BME280;50726;54.912;-8.392;2022-07-04T11:12:02;101450.06;;;22.76;100.00
64404;BME280;50726;54.912;-8.392;2022-07-04T11:14:39;101419.38;;;23.13;100.00
64404;BME280;50726;54.912;-8.392;2022-07-04T11:17:19;101439.81;;;23.56;100.00
64404;BME280;50726;54.912;-8.392;2022-07-04T11:19:46;101447.75;;;23.85;100.00
64404;BME280;50726;54.912;-8.392;2022-07-04T11:22:23;101450.34;;;23.44;100.00
64404;BME280;50726;54.912;-8.392;2022-07-04T11:24:49;101440.72;;;23.13;100.00
64404;BME280;50726;54.912;-8.392;2022-07-04T11:27:15;101454.09;;;22.98;100.00
64404;BME280;50726;54.912;-8.392;2022-07-04T11:29:50;101438.69;;;23.60;100.00
64404;BME280;50726;54.912;-8.392;2022-07-04T11:32:16;101457.41;;;23.02;100.00
64404;BME280;50726;54.912;-8.392;2022-07-04T11:34:42;101444.19;;;22.40;100.00
64404;BME280;50726;54.912;-8.392;2022-07-04T11:37:08;101460.78;;;22.46;100.00
64404;BME280;50726;54.912;-8.392;2022-07-04T11:39:33;101449.38;;;22.27;100.00
64404;BME280;50726;54.912;-8.392;2022-07-04T11:41:59;101448.84;;;22.37;100.00
64404;BME280;50726;54.912;-8.392;2022-07-04T11:44:43;101451.28;;;22.56;100.00
64404;BME280;50726;54.912;-8.392;2022-07-04T11:47:43;101455.31;;;23.36;100.00
64404;BME280;50726;54.912;-8.392;2022-07-04T11:50:11;101459.06;;;22.90;100.00
64404;BME280;50726;54.912;-8.392;2022-07-04T11:52:41;101452.66;;;23.36;100.00
64404;BME280;50726;54.912;-8.392;2022-07-04T11:55:12;101449.50;;;23.99;100.00
64404;BME280;50726;54.912;-8.392;2022-07-04T11:57:49;101470.44;;;24.33;100.00
64404;BME280;50726;54.912;-8.392;2022-07-04T12:00:25;101455.75;;;24.79;100.00
64404;BME280;50726;54.912;-8.392;2022-07-04T12:02:50;101456.16;;;24.60;100.00
64404;BME280;50726;54.912;-8.392;2022-07-04T12:05:17;101462.38;;;24.86;100.00
64404;BME280;50726;54.912;-8.392;2022-07-04T12:07:45;101445.31;;;25.13;98.27
64404;BME280;50726;54.912;-8.392;2022-07-04T12:10:23;101460.31;;;24.77;98.19
64404;BME280;50726;54.912;-8.392;2022-07-04T12:13:02;101452.09;;;25.43;97.30
64404;BME280;50726;54.912;-8.392;2022-07-04T12:15:47;101457.91;;;25.37;95.99
64404;BME280;50726;54.912;-8.392;2022-07-04T12:20:51;101467.44;;;24.37;97.18
64404;BME280;50726;54.912;-8.392;2022-07-04T12:23:23;101454.97;;;24.77;96.34
64404;BME280;50726;54.912;-8.392;2022-07-04T12:25:54;101465.97;;;25.24;93.22
64404;BME280;50726;54.912;-8.392;2022-07-04T12:28:21;101461.53;;;25.73;90.81
64404;BME280;50726;54.912;-8.392;2022-07-04T12:33:14;101472.94;;;24.36;94.50
64404;BME280;50726;54.912;-8.392;2022-07-04T12:46:09;101477.50;;;24.06;98.33
64404;BME280;50726;54.912;-8.392;2022-07-04T12:48:36;101476.38;;;23.55;100.00
64404;BME280;50726;54.912;-8.392;2022-07-04T12:51:15;101473.06;;;23.92;100.00
64404;BME280;50726;54.912;-8.392;2022-07-04T12:53:42;101461.16;;;24.38;100.00
64404;BME280;50726;54.912;-8.392;2022-07-04T12:56:09;101463.75;;;25.05;99.91
64404;BME280;50726;54.912;-8.392;2022-07-04T12:58:36;101464.31;;;24.97;99.49
64404;BME280;50726;54.912;-8.392;2022-07-04T13:01:02;101472.19;;;24.47;98.54
64404;BME280;50726;54.912;-8.392;2022-07-04T13:03:28;101476.72;;;23.64;100.00
64404;BME280;50726;54.912;-8.392;2022-07-04T13:05:54;101491.22;;;22.87;100.00
64404;BME280;50726;54.912;-8.392;2022-07-04T13:08:22;101477.16;;;22.23;100.00